Time;durP1;ratioP1;P1;durP2;ratioP2;P2;SDS_P1;SDS_P2;PMS_P1;PMS_P2;Temp;Humidity;BMP_temperature;BMP_pressure;BME280_temperature;BME280_humidity;BME280_pressure;Samples;Min_cycle;Max_cycle;Signal;HPM_P1;HPM_P2
2021/01/25 00:00:14;;;;;;;18.47;5.27;;;;;;;1.11;78.65;98456.40;120397;1148;24728;-58
2021/01/25 00:03:04;;;;;;;17.07;4.73;;;;;;;1.11;78.19;98454.42;120216;1148;25585;-56
2021/01/25 00:05:34;;;;;;;19.10;5.87;;;;;;;1.12;77.82;98460.69;120354;1147;26069;-58
2021/01/25 00:08:03;;;;;;;17.77;4.85;;;;;;;1.12;78.51;98455.93;120122;1148;22879;-58
2021/01/25 00:10:33;;;;;;;17.87;3.37;;;;;;;1.13;78.39;98462.20;120367;1148;22937;-58
2021/01/25 00:13:02;;;;;;;17.00;4.80;;;;;;;1.12;78.45;98466.92;120597;1148;22916;-58
2021/01/25 00:15:31;;;;;;;16.30;4.30;;;;;;;1.13;78.04;98462.20;120553;1148;22913;-61
2021/01/25 00:18:00;;;;;;;15.97;3.87;;;;;;;1.14;78.80;98460.98;120345;1148;22935;-56
2021/01/25 00:20:29;;;;;;;15.23;4.57;;;;;;;1.15;78.08;98466.02;120186;1148;22932;-60
2021/01/25 00:22:58;;;;;;;13.03;3.90;;;;;;;1.16;78.50;98466.79;120284;1148;22903;-57
2021/01/25 00:25:26;;;;;;;13.80;4.40;;;;;;;1.17;78.69;98479.30;120271;1148;22973;-59
2021/01/25 00:27:55;;;;;;;14.03;4.13;;;;;;;1.18;78.08;98475.34;120348;1148;22909;-58
2021/01/25 00:30:25;;;;;;;13.50;4.10;;;;;;;1.17;78.21;98471.82;120439;1148;22924;-56
2021/01/25 00:32:55;;;;;;;14.00;3.60;;;;;;;1.17;78.74;98471.82;120252;1148;27337;-58
2021/01/25 00:35:24;;;;;;;11.45;3.15;;;;;;;1.18;78.17;98467.84;120513;1147;22918;-57
2021/01/25 00:37:53;;;;;;;17.10;4.27;;;;;;;1.17;78.45;98469.07;120708;1147;23005;-58
2021/01/25 00:40:23;;;;;;;15.60;4.55;;;;;;;1.18;78.74;98472.59;120306;1148;23452;-58
2021/01/25 00:42:52;;;;;;;14.87;4.00;;;;;;;1.18;78.81;98478.83;120607;1147;23002;-57
2021/01/25 00:45:22;;;;;;;17.35;4.72;;;;;;;1.19;78.70;98472.12;120357;1148;22925;-55
2021/01/25 00:47:52;;;;;;;18.87;5.93;;;;;;;1.18;78.58;98472.59;120333;1148;23354;-58
2021/01/25 00:50:23;;;;;;;16.10;4.47;;;;;;;1.16;78.83;98478.52;120265;1148;27223;-55
2021/01/25 00:52:52;;;;;;;16.97;5.45;;;;;;;1.13;78.89;98486.93;120436;1148;27229;-56
2021/01/25 00:55:21;;;;;;;18.33;5.43;;;;;;;1.10;78.92;98485.08;120279;1147;22913;-57
2021/01/25 00:57:50;;;;;;;19.73;6.63;;;;;;;1.05;78.53;98480.98;120361;1148;22972;-57
2021/01/25 01:00:21;;;;;;;20.30;5.95;;;;;;;1.04;79.16;98489.66;120394;1147;25598;-57
2021/01/25 01:02:51;;;;;;;21.57;7.13;;;;;;;1.00;79.30;98494.55;120327;1147;22916;-58
2021/01/25 01:05:21;;;;;;;19.23;6.85;;;;;;;0.96;79.37;98491.19;120429;1148;27786;-58
2021/01/25 01:07:50;;;;;;;16.93;6.47;;;;;;;0.93;78.96;98497.61;120453;1147;23406;-57
2021/01/25 01:10:19;;;;;;;21.07;7.17;;;;;;;0.90;79.45;98499.28;120257;1148;23022;-57
2021/01/25 01:12:48;;;;;;;19.43;7.37;;;;;;;0.88;79.00;98501.72;120214;1148;27280;-56
2021/01/25 01:15:17;;;;;;;18.83;6.13;;;;;;;0.84;79.69;98495.61;120354;1148;22909;-59
2021/01/25 01:17:46;;;;;;;21.35;8.55;;;;;;;0.80;79.48;98498.52;120488;1148;22998;-57
2021/01/25 01:20:16;;;;;;;21.93;8.37;;;;;;;0.79;79.23;98498.95;120426;1148;22966;-56
2021/01/25 01:22:45;;;;;;;19.25;6.75;;;;;;;0.75;79.52;98493.61;120671;1147;22935;-56
2021/01/25 01:25:15;;;;;;;22.40;7.95;;;;;;;0.72;80.00;98496.51;120245;1148;22942;-55
2021/01/25 01:27:44;;;;;;;24.03;8.53;;;;;;;0.72;79.95;98496.51;120263;1148;23158;-56
2021/01/25 01:30:15;;;;;;;20.37;7.93;;;;;;;0.71;80.32;98498.48;120465;1148;23009;-57
2021/01/25 01:32:45;;;;;;;28.53;9.73;;;;;;;0.72;79.81;98496.51;120345;1148;22930;-56
2021/01/25 01:35:14;;;;;;;22.82;8.35;;;;;;;0.72;80.51;98499.25;120211;1147;23009;-58
2021/01/25 01:37:43;;;;;;;21.70;7.73;;;;;;;0.73;80.54;98503.52;120136;1148;22927;-59
2021/01/25 01:40:14;;;;;;;22.30;8.90;;;;;;;0.73;80.82;98504.28;120248;1147;26089;-56
2021/01/25 01:42:43;;;;;;;18.80;6.50;;;;;;;0.75;80.41;98498.33;120329;1147;22914;-57
2021/01/25 01:45:14;;;;;;;20.93;8.10;;;;;;;0.76;80.76;98500.64;120242;1148;27710;-58
2021/01/25 01:47:44;;;;;;;18.27;6.40;;;;;;;0.76;80.99;98503.39;120448;1147;27679;-57
2021/01/25 01:50:15;;;;;;;17.43;6.00;;;;;;;0.78;80.53;98505.67;120408;1147;22923;-56
2021/01/25 01:52:44;;;;;;;17.75;5.97;;;;;;;0.79;80.31;98513.45;120300;1148;26353;-59
2021/01/25 01:55:14;;;;;;;17.23;6.20;;;;;;;0.80;80.42;98509.50;120387;1148;23160;-57
2021/01/25 01:57:44;;;;;;;16.97;4.83;;;;;;;0.81;81.11;98519.25;120328;1147;22929;-58
2021/01/25 02:00:15;;;;;;;16.75;4.53;;;;;;;0.82;81.05;98517.28;120259;1148;27267;-58
2021/01/25 02:02:46;;;;;;;16.23;5.30;;;;;;;0.83;80.82;98518.05;120331;1148;23018;-58
2021/01/25 02:05:16;;;;;;;13.77;4.07;;;;;;;0.81;81.46;98519.25;120285;1147;22919;-57
2021/01/25 02:07:50;;;;;;;14.00;4.67;;;;;;;0.83;81.25;98523.54;120330;1147;22940;-57
2021/01/25 02:10:21;;;;;;;16.27;4.40;;;;;;;0.84;80.79;98525.83;120456;1147;22918;-58
2021/01/25 02:12:54;;;;;;;18.07;4.50;;;;;;;0.85;81.30;98519.09;120365;1147;24749;-57
2021/01/25 02:15:24;;;;;;;13.90;3.40;;;;;;;0.85;81.38;98521.84;120278;1148;23084;-59
2021/01/25 02:17:54;;;;;;;16.15;4.97;;;;;;;0.86;81.58;98531.63;120323;1148;22941;-57
2021/01/25 02:20:30;;;;;;;14.70;4.03;;;;;;;0.87;81.34;98530.39;120376;1148;22920;-57
2021/01/25 02:23:37;;;;;;;16.27;4.17;;;;;;;0.87;80.95;98524.90;120337;1147;23913;-59
2021/01/25 02:26:22;;;;;;;15.15;4.65;;;;;;;0.87;81.67;98540.64;120254;1150;26727;-58
2021/01/25 02:28:52;;;;;;;13.37;4.23;;;;;;;0.86;81.63;98534.38;120265;1150;23011;-57
2021/01/25 02:31:22;;;;;;;15.45;5.20;;;;;;;0.86;81.21;98534.38;120339;1150;26002;-57
2021/01/25 02:33:56;;;;;;;15.53;4.23;;;;;;;0.85;81.97;98541.08;120317;1150;22930;-58
2021/01/25 02:36:28;;;;;;;19.23;6.13;;;;;;;0.84;81.38;98536.81;120589;1150;23923;-55
2021/01/25 02:39:00;;;;;;;17.77;5.43;;;;;;;0.85;82.14;98537.59;120360;1150;23068;-57
2021/01/25 02:41:30;;;;;;;16.33;4.87;;;;;;;0.83;82.47;98542.77;120269;1150;23121;-58
2021/01/25 02:44:00;;;;;;;15.00;4.22;;;;;;;0.80;82.12;98542.46;120305;1150;22954;-57
2021/01/25 02:46:30;;;;;;;16.83;4.93;;;;;;;0.80;82.70;98544.44;120233;1150;26422;-58
2021/01/25 02:49:00;;;;;;;15.67;5.03;;;;;;;0.76;82.65;98550.08;120260;1150;22983;-56
2021/01/25 02:51:29;;;;;;;19.13;6.17;;;;;;;0.74;82.87;98543.51;120257;1150;23206;-55
2021/01/25 02:53:58;;;;;;;19.45;7.50;;;;;;;0.73;82.92;98552.95;120331;1150;23347;-58
2021/01/25 02:56:27;;;;;;;20.33;6.67;;;;;;;0.71;82.25;98556.16;120288;1150;22950;-57
2021/01/25 02:58:57;;;;;;;17.33;6.40;;;;;;;0.72;82.81;98563.16;120179;1151;22958;-59
2021/01/25 03:01:27;;;;;;;21.30;7.63;;;;;;;0.71;82.39;98571.87;120562;1149;26495;-58
2021/01/25 03:03:56;;;;;;;19.35;5.70;;;;;;;0.70;83.28;98570.35;120501;1148;22945;-58
2021/01/25 03:06:26;;;;;;;18.83;5.40;;;;;;;0.69;82.94;98574.30;120450;1148;22916;-58
2021/01/25 03:08:55;;;;;;;15.83;5.10;;;;;;;0.67;83.26;98566.52;120477;1148;26381;-56
2021/01/25 03:11:24;;;;;;;17.67;5.03;;;;;;;0.67;82.69;98566.52;120323;1148;28873;-58
2021/01/25 03:13:54;;;;;;;18.17;5.10;;;;;;;0.65;83.43;98570.93;120313;1148;24592;-58
2021/01/25 03:16:23;;;;;;;13.80;3.83;;;;;;;0.64;83.25;98574.91;120485;1148;22966;-56
2021/01/25 03:18:52;;;;;;;16.80;4.17;;;;;;;0.62;83.29;98572.59;120368;1148;22941;-58
2021/01/25 03:21:21;;;;;;;16.93;3.90;;;;;;;0.63;82.39;98576.11;120267;1148;24592;-58
2021/01/25 03:23:52;;;;;;;12.93;3.47;;;;;;;0.62;82.40;98585.58;120499;1148;23013;-59
2021/01/25 03:26:21;;;;;;;13.87;3.80;;;;;;;0.61;83.11;98584.81;120305;1147;22966;-57
2021/01/25 03:28:50;;;;;;;10.87;3.23;;;;;;;0.60;82.55;98590.77;120210;1148;22922;-58
2021/01/25 03:31:20;;;;;;;16.57;4.20;;;;;;;0.60;82.65;98601.74;120243;1148;23083;-58
2021/01/25 03:33:48;;;;;;;13.90;4.20;;;;;;;0.58;82.13;98599.43;120363;1148;22993;-56
2021/01/25 03:36:18;;;;;;;15.97;3.70;;;;;;;0.59;82.24;98602.95;120268;1147;22919;-57
2021/01/25 03:38:47;;;;;;;13.88;3.62;;;;;;;0.58;82.47;98599.43;120311;1148;22931;-58
2021/01/25 03:41:16;;;;;;;10.65;3.05;;;;;;;0.57;81.85;98600.66;120350;1147;22927;-58
2021/01/25 03:43:46;;;;;;;13.10;2.77;;;;;;;0.58;82.02;98604.18;120357;1147;23010;-59
2021/01/25 03:46:15;;;;;;;10.93;2.83;;;;;;;0.58;81.36;98610.41;120341;1148;22945;-57
2021/01/25 03:48:44;;;;;;;10.07;2.13;;;;;;;0.58;81.84;98606.92;120410;1148;24695;-58
2021/01/25 03:51:14;;;;;;;8.00;2.55;;;;;;;0.58;81.45;98610.41;120480;1148;23084;-54
2021/01/25 03:53:44;;;;;;;13.20;2.52;;;;;;;0.57;81.70;98611.64;120345;1148;23110;-58
2021/01/25 03:56:13;;;;;;;11.43;2.67;;;;;;;0.58;81.58;98606.92;120412;1147;23077;-58
2021/01/25 03:58:43;;;;;;;12.47;2.90;;;;;;;0.58;82.17;98615.16;120444;1148;22935;-57
2021/01/25 04:01:13;;;;;;;11.70;3.00;;;;;;;0.57;81.79;98625.38;120316;1148;23019;-57
2021/01/25 04:03:43;;;;;;;11.80;2.63;;;;;;;0.56;81.50;98623.83;120324;1148;29074;-59
2021/01/25 04:06:12;;;;;;;12.57;3.10;;;;;;;0.54;81.89;98617.25;120321;1148;22972;-59
2021/01/25 04:08:43;;;;;;;13.00;2.67;;;;;;;0.53;82.32;98621.23;120289;1148;22942;-58
2021/01/25 04:11:12;;;;;;;12.73;2.97;;;;;;;0.53;82.39;98622.00;120294;1148;23445;-57
2021/01/25 04:13:41;;;;;;;14.63;3.67;;;;;;;0.52;81.73;98622.43;120273;1148;22995;-59
2021/01/25 04:16:11;;;;;;;12.53;3.00;;;;;;;0.53;81.71;98621.23;120376;1148;27580;-58
2021/01/25 04:18:39;;;;;;;14.07;3.47;;;;;;;0.55;81.90;98619.56;120542;1147;24700;-58
2021/01/25 04:21:08;;;;;;;15.10;4.20;;;;;;;0.58;81.85;98615.91;120177;1147;26743;-58
2021/01/25 04:23:38;;;;;;;14.53;3.53;;;;;;;0.58;81.68;98613.16;120471;1148;24553;-56
2021/01/25 04:26:07;;;;;;;11.63;3.15;;;;;;;0.58;82.21;98612.41;120537;1147;22941;-58
2021/01/25 04:28:36;;;;;;;13.73;3.87;;;;;;;0.57;81.54;98621.86;120460;1148;23022;-58
2021/01/25 04:31:06;;;;;;;16.60;4.70;;;;;;;0.54;81.57;98629.00;120367;1148;22909;-57
2021/01/25 04:33:35;;;;;;;13.20;3.70;;;;;;;0.50;81.67;98622.89;120455;1148;22974;-58
2021/01/25 04:36:06;;;;;;;13.88;3.72;;;;;;;0.48;81.89;98621.80;120389;1147;26402;-57
2021/01/25 04:38:35;;;;;;;11.67;2.73;;;;;;;0.45;81.71;98623.48;120476;1148;22949;-58
2021/01/25 04:41:05;;;;;;;15.25;4.05;;;;;;;0.45;81.67;98630.95;120362;1148;23160;-58
2021/01/25 04:43:35;;;;;;;13.88;4.03;;;;;;;0.42;82.04;98632.61;120416;1147;22930;-57
2021/01/25 04:46:04;;;;;;;12.80;3.50;;;;;;;0.41;82.52;98631.09;120335;1148;25904;-57
2021/01/25 04:48:38;;;;;;;16.05;4.22;;;;;;;0.40;82.28;98634.27;120351;1148;22920;-57
2021/01/25 04:51:08;;;;;;;16.07;4.67;;;;;;;0.37;82.38;98630.47;120463;1148;27247;-58
2021/01/25 04:53:39;;;;;;;14.23;3.42;;;;;;;0.35;82.71;98627.38;120386;1148;23077;-58
2021/01/25 04:56:08;;;;;;;17.00;5.03;;;;;;;0.36;81.96;98633.64;120345;1148;23125;-55
2021/01/25 04:58:38;;;;;;;14.93;4.57;;;;;;;0.34;81.87;98628.60;120268;1148;22940;-58
2021/01/25 05:01:07;;;;;;;13.88;3.62;;;;;;;0.35;82.20;98621.89;120534;1146;23139;-58
2021/01/25 05:03:36;;;;;;;16.67;4.93;;;;;;;0.35;82.28;98623.89;120307;1148;26638;-55
2021/01/25 05:06:06;;;;;;;18.03;5.23;;;;;;;0.37;82.36;98624.20;120364;1148;22945;-58
2021/01/25 05:08:35;;;;;;;19.48;5.75;;;;;;;0.37;82.32;98624.97;120407;1148;23359;-58
2021/01/25 05:11:14;;;;;;;19.55;6.35;;;;;;;0.39;82.18;98628.03;120343;1148;24542;-58
2021/01/25 05:13:43;;;;;;;20.93;6.27;;;;;;;0.39;82.05;98622.55;120500;1147;22897;-58
2021/01/25 05:16:21;;;;;;;18.85;5.85;;;;;;;0.41;82.62;98622.09;120352;1147;26877;-59
2021/01/25 05:18:58;;;;;;;20.63;7.30;;;;;;;0.41;82.02;98622.86;120296;1147;22919;-58
2021/01/25 05:21:37;;;;;;;20.50;7.33;;;;;;;0.40;82.04;98613.08;120107;1148;22966;-58
2021/01/25 05:24:08;;;;;;;24.97;8.40;;;;;;;0.41;82.97;98631.09;120258;1148;22918;-59
2021/01/25 05:26:40;;;;;;;24.27;8.93;;;;;;;0.39;82.34;98625.29;120310;1147;22860;-59
2021/01/25 05:29:09;;;;;;;23.33;8.33;;;;;;;0.41;82.76;98625.60;120258;1147;23074;-56
2021/01/25 05:31:38;;;;;;;23.90;7.55;;;;;;;0.41;82.73;98635.81;120090;1148;24744;-58
2021/01/25 05:34:18;;;;;;;18.80;5.67;;;;;;;0.40;82.20;98629.55;120051;1148;22973;-57
2021/01/25 05:36:49;;;;;;;18.55;5.72;;;;;;;0.40;82.53;98635.04;120232;1147;22911;-59
2021/01/25 05:39:19;;;;;;;19.37;6.90;;;;;;;0.42;82.12;98635.36;120213;1148;24307;-57
2021/01/25 05:41:56;;;;;;;18.77;6.67;;;;;;;0.42;82.32;98635.36;120593;1147;26095;-55
2021/01/25 05:44:26;;;;;;;18.60;6.37;;;;;;;0.43;82.97;98633.38;120071;1148;22942;-54
2021/01/25 05:47:07;;;;;;;22.40;6.80;;;;;;;0.43;82.73;98644.36;120071;1148;22936;-54
2021/01/25 05:49:37;;;;;;;25.65;8.33;;;;;;;0.45;82.23;98650.94;120376;1147;23218;-55
2021/01/25 05:52:07;;;;;;;28.40;8.33;;;;;;;0.46;82.76;98654.43;120177;1148;26382;-57
2021/01/25 05:54:36;;;;;;;21.03;7.43;;;;;;;0.46;82.94;98652.45;120141;1147;24597;-55
2021/01/25 05:57:06;;;;;;;22.53;7.77;;;;;;;0.47;82.19;98656.75;120209;1148;22923;-55
2021/01/25 05:59:35;;;;;;;20.48;5.55;;;;;;;0.49;82.55;98659.81;120304;1148;24553;-52
2021/01/25 06:02:04;;;;;;;21.67;7.73;;;;;;;0.49;82.29;98659.03;119984;1148;22916;-53
2021/01/25 06:04:34;;;;;;;24.55;6.80;;;;;;;0.50;82.59;98652.31;119724;1147;22923;-57
2021/01/25 06:07:09;;;;;;;19.90;6.47;;;;;;;0.48;83.19;98669.25;119970;1148;22920;-53
2021/01/25 06:09:50;;;;;;;22.70;6.73;;;;;;;0.50;83.25;98669.56;121053;1147;26044;-56
2021/01/25 06:12:27;;;;;;;23.10;6.73;;;;;;;0.50;82.69;98672.31;119980;1148;27396;-53
2021/01/25 06:15:03;;;;;;;21.60;7.00;;;;;;;0.51;82.54;98665.62;120070;1147;26357;-54
2021/01/25 06:17:34;;;;;;;21.00;6.20;;;;;;;0.51;83.10;98667.59;120804;1147;23075;-56
2021/01/25 06:20:09;;;;;;;23.73;7.10;;;;;;;0.51;83.28;98671.11;120244;1148;26698;-53
2021/01/25 06:22:38;;;;;;;24.97;8.00;;;;;;;0.51;83.03;98671.11;120152;1148;27415;-55
2021/01/25 06:25:10;;;;;;;24.60;8.57;;;;;;;0.51;82.97;98671.11;120214;1147;23902;-61
2021/01/25 06:27:40;;;;;;;28.37;9.10;;;;;;;0.50;82.87;98666.81;120350;1147;22920;-55
2021/01/25 06:30:13;;;;;;;27.30;9.33;;;;;;;0.50;83.50;98674.28;120140;1147;22923;-56
2021/01/25 06:32:43;;;;;;;25.60;8.77;;;;;;;0.49;83.10;98681.00;120168;1148;22952;-54
2021/01/25 06:35:16;;;;;;;26.48;8.25;;;;;;;0.47;84.04;98678.71;120160;1147;22995;-52
2021/01/25 06:37:53;;;;;;;23.50;9.03;;;;;;;0.48;83.88;98688.47;120046;1148;22919;-53
2021/01/25 06:40:28;;;;;;;29.40;9.40;;;;;;;0.48;83.68;98696.70;120421;1147;27279;-56
2021/01/25 06:42:57;;;;;;;27.13;9.33;;;;;;;0.48;83.58;98693.18;119991;1148;22923;-54
2021/01/25 06:45:27;;;;;;;27.93;10.03;;;;;;;0.48;84.17;98698.67;119960;1148;23569;-55
2021/01/25 06:47:56;;;;;;;28.38;10.65;;;;;;;0.49;84.25;98697.47;119956;1148;22920;-54
2021/01/25 06:50:27;;;;;;;30.13;10.10;;;;;;;0.52;84.05;98702.83;119931;1148;22903;-56
2021/01/25 06:52:57;;;;;;;28.30;9.90;;;;;;;0.52;84.26;98710.29;120243;1148;23098;-55
2021/01/25 06:55:31;;;;;;;31.17;11.03;;;;;;;0.52;84.39;98705.57;120048;1148;22944;-56
2021/01/25 06:58:05;;;;;;;28.55;9.85;;;;;;;0.52;83.51;98713.81;120162;1147;27567;-53
2021/01/25 07:00:37;;;;;;;30.30;11.57;;;;;;;0.52;83.76;98711.06;120192;1148;25969;-55
2021/01/25 07:03:08;;;;;;;27.13;10.50;;;;;;;0.53;84.03;98718.10;120153;1147;23384;-54
2021/01/25 07:05:39;;;;;;;29.13;11.77;;;;;;;0.53;83.70;98718.10;120393;1148;22981;-54
2021/01/25 07:08:22;;;;;;;29.57;10.60;;;;;;;0.54;84.16;98711.38;120064;1147;22945;-57
2021/01/25 07:10:56;;;;;;;32.53;12.33;;;;;;;0.55;84.17;98712.92;120013;1148;22972;-56
2021/01/25 07:13:27;;;;;;;31.00;13.30;;;;;;;0.56;83.65;98719.94;120417;1147;23071;-54
2021/01/25 07:15:56;;;;;;;31.10;11.83;;;;;;;0.56;84.22;98719.19;120027;1147;22999;-53
2021/01/25 07:18:27;;;;;;;23.60;9.55;;;;;;;0.57;84.51;98721.48;120055;1148;22941;-54
2021/01/25 07:20:58;;;;;;;37.27;14.53;;;;;;;0.57;84.60;98728.95;120256;1148;22999;-53
2021/01/25 07:23:28;;;;;;;37.60;13.60;;;;;;;0.58;84.47;98728.48;120183;1147;26079;-57
2021/01/25 07:25:59;;;;;;;36.05;13.03;;;;;;;0.60;84.35;98722.57;120286;1147;27809;-58
2021/01/25 07:28:29;;;;;;;32.20;11.67;;;;;;;0.59;83.89;98730.03;120148;1147;23326;-56
2021/01/25 07:30:58;;;;;;;;;;;;;;;0.60;83.80;98731.55;120158;1147;22952;-53
2021/01/25 07:33:28;;;;;;;36.07;12.60;;;;;;;0.60;84.52;98728.80;120355;1147;24224;-55
2021/01/25 07:35:58;;;;;;;35.97;12.60;;;;;;;0.62;84.32;98731.13;120328;1147;22922;-55
2021/01/25 07:38:28;;;;;;;36.83;12.77;;;;;;;0.65;84.49;98730.21;120219;1148;27393;-55
2021/01/25 07:40:59;;;;;;;28.77;10.58;;;;;;;0.66;84.32;98732.50;120053;1147;22903;-54
2021/01/25 07:43:30;;;;;;;25.43;9.30;;;;;;;0.66;84.23;98738.00;120068;1148;22893;-54
2021/01/25 07:46:07;;;;;;;28.45;10.30;;;;;;;0.68;84.28;98729.33;120232;1148;22925;-53
2021/01/25 07:48:48;;;;;;;26.73;8.87;;;;;;;0.70;84.76;98732.39;120059;1147;23026;-53
2021/01/25 07:51:19;;;;;;;;;;;;;;;0.71;84.61;98731.94;120273;1148;22952;-53
2021/01/25 07:53:49;;;;;;;26.23;7.97;;;;;;;0.71;84.03;98725.67;120132;1148;23690;-56
2021/01/25 07:56:20;;;;;;;26.40;9.10;;;;;;;0.71;84.69;98739.41;120465;1147;22941;-54
2021/01/25 07:58:50;;;;;;;23.30;7.83;;;;;;;0.73;84.97;98742.46;120483;1147;22901;-55
2021/01/25 08:01:26;;;;;;;24.32;9.20;;;;;;;0.73;84.96;98739.72;120334;1147;27700;-56
2021/01/25 08:04:01;;;;;;;22.40;7.63;;;;;;;0.73;84.86;98742.46;120102;1148;23109;-56
2021/01/25 08:06:34;;;;;;;21.60;7.80;;;;;;;0.73;84.32;98737.74;120282;1147;24581;-55
2021/01/25 08:09:06;;;;;;;24.40;7.85;;;;;;;0.74;84.87;98733.80;119992;1147;23002;-53
2021/01/25 08:11:37;;;;;;;24.30;8.55;;;;;;;0.77;84.32;98743.09;119980;1147;23078;-55
2021/01/25 08:14:18;;;;;;;21.97;7.00;;;;;;;0.77;84.95;98749.36;120114;1147;23393;-56
2021/01/25 08:16:53;;;;;;;21.90;6.67;;;;;;;0.76;84.74;98736.09;120367;1148;23109;-56
2021/01/25 08:19:25;;;;;;;19.10;5.30;;;;;;;0.77;84.23;98740.35;120270;1147;22993;-55
2021/01/25 08:22:02;;;;;;;25.50;6.95;;;;;;;0.78;84.31;98750.14;120421;1148;22924;-54
2021/01/25 08:24:31;;;;;;;21.43;6.53;;;;;;;0.78;84.11;98747.39;120403;1147;22925;-55
2021/01/25 08:27:17;;;;;;;19.10;5.62;;;;;;;0.80;84.21;98742.21;120250;1147;24576;-55
2021/01/25 08:29:49;;;;;;;23.13;6.90;;;;;;;0.82;83.72;98753.52;120199;1147;22913;-55
2021/01/25 08:32:27;;;;;;;19.90;5.93;;;;;;;0.84;83.76;98753.83;120685;1148;23392;-55
2021/01/25 08:35:01;;;;;;;21.20;5.03;;;;;;;0.86;84.11;98754.14;120113;1147;23125;-54
2021/01/25 08:37:32;;;;;;;18.70;5.00;;;;;;;0.89;84.24;98755.23;120206;1147;27402;-54
2021/01/25 08:40:14;;;;;;;20.20;6.80;;;;;;;0.90;84.29;98754.00;120155;1147;22973;-53
2021/01/25 08:42:43;;;;;;;17.87;6.00;;;;;;;0.91;83.88;98758.30;120155;1147;23018;-55
2021/01/25 08:45:16;;;;;;;18.48;5.30;;;;;;;0.91;84.01;98761.05;120178;1148;22913;-55
2021/01/25 08:47:45;;;;;;;13.80;3.07;;;;;;;0.90;83.89;98754.78;120024;1148;22942;-56
2021/01/25 08:50:19;;;;;;;15.73;3.83;;;;;;;0.90;83.99;98759.50;120831;1147;22919;-57
2021/01/25 08:53:00;;;;;;;12.03;2.93;;;;;;;0.90;83.75;98767.74;120569;1148;22926;-56
2021/01/25 08:55:37;;;;;;;13.22;2.95;;;;;;;0.92;83.78;98768.06;120289;1148;22924;-54
2021/01/25 08:58:18;;;;;;;12.33;3.10;;;;;;;0.91;83.57;98766.55;120137;1147;22972;-54
2021/01/25 09:00:48;;;;;;;9.37;2.20;;;;;;;0.91;82.86;98774.78;120077;1147;23084;-56
2021/01/25 09:03:19;;;;;;;13.30;3.23;;;;;;;0.91;83.08;98766.55;120199;1148;22942;-52
2021/01/25 09:05:51;;;;;;;11.90;2.93;;;;;;;0.92;83.49;98774.33;120147;1148;22915;-55
2021/01/25 09:08:21;;;;;;;13.40;3.10;;;;;;;0.95;83.69;98780.91;120678;1147;23050;-53
2021/01/25 09:10:50;;;;;;;11.93;3.07;;;;;;;0.94;82.78;98790.36;120359;1148;22942;-53
2021/01/25 09:13:19;;;;;;;13.00;3.47;;;;;;;0.94;83.00;98791.13;120215;1148;22941;-56
2021/01/25 09:15:48;;;;;;;12.77;3.17;;;;;;;0.95;82.53;98792.67;120127;1148;22925;-53
2021/01/25 09:18:18;;;;;;;9.70;2.37;;;;;;;0.96;82.86;98801.66;120094;1148;22914;-56
2021/01/25 09:20:47;;;;;;;12.30;2.87;;;;;;;0.98;82.87;98801.98;120135;1147;22920;-55
2021/01/25 09:23:18;;;;;;;9.98;2.35;;;;;;;1.00;82.77;98813.28;120371;1148;24527;-57
2021/01/25 09:25:48;;;;;;;12.40;2.90;;;;;;;1.01;81.96;98812.09;120018;1148;23127;-55
2021/01/25 09:28:17;;;;;;;10.80;2.62;;;;;;;1.00;81.99;98816.81;120313;1147;22943;-53
2021/01/25 09:30:46;;;;;;;9.77;2.40;;;;;;;1.01;81.98;98821.10;120231;1148;22926;-57
2021/01/25 09:33:15;;;;;;;10.40;2.10;;;;;;;1.02;81.79;98828.12;120150;1148;22949;-56
2021/01/25 09:35:44;;;;;;;11.05;2.10;;;;;;;1.04;82.00;98830.41;120387;1148;22931;-55
2021/01/25 09:38:14;;;;;;;14.33;3.13;;;;;;;1.03;82.18;98823.39;120124;1148;23025;-55
2021/01/25 09:40:44;;;;;;;11.87;3.33;;;;;;;1.02;82.37;98827.34;120254;1148;23030;-55
2021/01/25 09:43:13;;;;;;;12.13;3.10;;;;;;;1.01;82.19;98834.84;120199;1148;24591;-56
2021/01/25 09:45:42;;;;;;;13.93;3.93;;;;;;;1.00;82.58;98833.30;120065;1148;24726;-56
2021/01/25 09:48:12;;;;;;;11.70;3.00;;;;;;;1.01;82.91;98832.09;120286;1148;24583;-56
2021/01/25 09:50:41;;;;;;;14.18;3.10;;;;;;;1.02;82.65;98833.61;120081;1148;23059;-54
2021/01/25 09:53:10;;;;;;;19.10;4.00;;;;;;;1.04;82.99;98830.41;120146;1148;23058;-54
2021/01/25 09:55:40;;;;;;;14.05;3.70;;;;;;;1.05;82.58;98824.48;120066;1148;23010;-56
2021/01/25 09:58:09;;;;;;;12.20;3.00;;;;;;;1.08;82.44;98826.32;120131;1148;27403;-55
2021/01/25 10:00:38;;;;;;;12.33;3.13;;;;;;;1.10;82.27;98834.11;120149;1148;22944;-56
2021/01/25 10:03:08;;;;;;;12.25;2.65;;;;;;;1.11;81.80;98838.41;120079;1148;22922;-55
2021/01/25 10:05:37;;;;;;;11.73;3.33;;;;;;;1.10;81.85;98831.36;120056;1148;23084;-53
2021/01/25 10:08:07;;;;;;;12.70;2.57;;;;;;;1.12;82.17;98835.20;120013;1148;23084;-56
2021/01/25 10:10:36;;;;;;;7.97;2.30;;;;;;;1.14;81.63;98834.77;120367;1148;23044;-53
2021/01/25 10:13:06;;;;;;;10.43;2.53;;;;;;;1.15;81.68;98833.54;120325;1148;23083;-53
2021/01/25 10:15:35;;;;;;;12.65;3.05;;;;;;;1.16;81.60;98835.09;120966;1148;22883;-55
2021/01/25 10:18:04;;;;;;;12.25;2.60;;;;;;;1.17;81.78;98836.61;120169;1147;25642;-53
2021/01/25 10:20:35;;;;;;;10.00;2.23;;;;;;;1.18;82.19;98829.91;120354;1147;22930;-57
2021/01/25 10:23:04;;;;;;;12.13;2.47;;;;;;;1.17;81.41;98839.36;120198;1148;26229;-54
2021/01/25 10:25:33;;;;;;;10.25;2.20;;;;;;;1.16;81.68;98835.09;120286;1147;24358;-56
2021/01/25 10:28:03;;;;;;;9.57;1.97;;;;;;;1.14;81.17;98827.27;120333;1148;27732;-54
2021/01/25 10:30:32;;;;;;;9.50;2.67;;;;;;;1.13;82.00;98836.75;120205;1147;23064;-55
2021/01/25 10:33:02;;;;;;;10.73;2.27;;;;;;;1.13;82.11;98835.97;120305;1148;22909;-54
2021/01/25 10:35:32;;;;;;;14.05;3.33;;;;;;;1.12;81.47;98831.70;120235;1148;26015;-55
2021/01/25 10:38:02;;;;;;;12.23;2.77;;;;;;;1.10;81.07;98836.86;120343;1147;22986;-56
2021/01/25 10:40:33;;;;;;;10.57;2.60;;;;;;;1.09;81.66;98836.11;120104;1148;22923;-56
2021/01/25 10:43:02;;;;;;;13.00;3.37;;;;;;;1.06;80.99;98830.73;120300;1148;22919;-53
2021/01/25 10:45:31;;;;;;;10.77;3.03;;;;;;;1.05;81.32;98838.23;120753;1147;22886;-55
2021/01/25 10:48:01;;;;;;;12.80;3.37;;;;;;;1.03;81.54;98840.66;120425;1147;22916;-55
2021/01/25 10:50:32;;;;;;;13.20;3.40;;;;;;;1.01;81.10;98829.34;120421;1147;27718;-56
2021/01/25 10:53:01;;;;;;;12.75;3.33;;;;;;;1.03;81.96;98837.91;120058;1148;27260;-54
2021/01/25 10:55:31;;;;;;;16.27;4.30;;;;;;;1.03;81.42;98840.66;120065;1148;27229;-56
2021/01/25 10:58:00;;;;;;;13.60;3.50;;;;;;;1.04;81.81;98844.15;120021;1147;22908;-56
2021/01/25 11:00:30;;;;;;;13.57;3.87;;;;;;;1.04;82.03;98841.41;119958;1148;22949;-55
2021/01/25 11:03:00;;;;;;;13.30;3.70;;;;;;;1.05;81.46;98840.98;120428;1147;22948;-54
2021/01/25 11:05:29;;;;;;;14.37;3.80;;;;;;;1.06;81.94;98849.96;120106;1147;22948;-58
2021/01/25 11:07:59;;;;;;;14.40;4.10;;;;;;;1.04;81.21;98853.17;120024;1148;22940;-54
2021/01/25 11:10:28;;;;;;;14.00;3.53;;;;;;;1.04;81.98;98855.91;120172;1147;24360;-56
2021/01/25 11:12:57;;;;;;;15.37;3.93;;;;;;;1.04;81.02;98861.41;120338;1147;22924;-56
2021/01/25 11:15:27;;;;;;;14.37;3.63;;;;;;;1.02;81.36;98861.09;121016;1147;22932;-56
2021/01/25 11:17:57;;;;;;;10.95;3.30;;;;;;;1.00;80.41;98849.01;120051;1148;23056;-55
2021/01/25 11:20:27;;;;;;;10.30;2.30;;;;;;;1.00;80.53;98854.50;120683;1147;26547;-55
2021/01/25 11:22:56;;;;;;;14.70;4.00;;;;;;;1.00;81.61;98860.77;120103;1148;22948;-55
2021/01/25 11:25:25;;;;;;;14.70;3.75;;;;;;;1.01;80.88;98858.80;120155;1148;27713;-56
2021/01/25 11:27:55;;;;;;;12.90;2.47;;;;;;;1.01;81.36;98865.07;120109;1147;24581;-56
2021/01/25 11:30:25;;;;;;;11.00;2.72;;;;;;;1.02;80.88;98860.31;119996;1148;22912;-55
2021/01/25 11:32:55;;;;;;;9.97;1.80;;;;;;;1.00;80.17;98869.02;120344;1147;22942;-53
2021/01/25 11:35:24;;;;;;;11.67;2.60;;;;;;;0.98;80.74;98867.92;120158;1148;22924;-55
2021/01/25 11:37:56;;;;;;;10.93;2.23;;;;;;;0.97;80.02;98869.93;120478;1147;22954;-53
2021/01/25 11:40:26;;;;;;;9.47;2.47;;;;;;;0.94;80.59;98875.53;120228;1147;23311;-56